createdAt,value
2019-04-22T00:01:38.611Z,13.60
2019-04-22T00:04:13.495Z,18.90
2019-04-22T00:06:56.098Z,13.63
2019-04-22T00:09:40.266Z,16.63
2019-04-22T00:12:06.113Z,19.43
2019-04-22T00:14:28.338Z,15.17
2019-04-22T00:17:20.319Z,14.40
2019-04-22T00:19:45.342Z,16.80
2019-04-22T00:22:20.541Z,15.63
2019-04-22T00:24:38.782Z,18.33
2019-04-22T00:27:13.829Z,18.10
2019-04-22T00:32:28.315Z,21.07
2019-04-22T00:34:57.676Z,16.40
2019-04-22T00:37:28.806Z,18.17
2019-04-22T00:40:14.869Z,16.53
2019-04-22T00:42:28.808Z,20.07
2019-04-22T00:45:03.255Z,17.60
2019-04-22T00:50:14.606Z,22.00
2019-04-22T00:55:06.168Z,16.10
2019-04-22T01:00:06.645Z,18.50
2019-04-22T01:02:39.663Z,20.30
2019-04-22T01:05:00.788Z,20.20
2019-04-22T01:07:30.458Z,19.47
2019-04-22T01:12:32.946Z,20.40
2019-04-22T01:15:01.072Z,18.47
2019-04-22T01:17:34.389Z,17.17
2019-04-22T01:20:10.400Z,16.03
2019-04-22T01:22:26.698Z,19.40
2019-04-22T01:24:57.617Z,17.53
2019-04-22T01:27:24.412Z,19.53
2019-04-22T01:29:48.950Z,18.00
2019-04-22T01:32:15.335Z,18.70
2019-04-22T01:34:49.939Z,21.77
2019-04-22T01:37:27.112Z,17.43
2019-04-22T01:40:04.545Z,16.20
2019-04-22T01:42:35.704Z,16.67
2019-04-22T01:45:02.797Z,18.57
2019-04-22T01:47:36.509Z,16.50
2019-04-22T01:50:06.297Z,19.27
2019-04-22T01:52:32.675Z,19.50
2019-04-22T01:55:04.502Z,17.33
2019-04-22T01:57:28.792Z,20.93
2019-04-22T01:59:51.479Z,19.40
2019-04-22T02:02:30.527Z,18.60
2019-04-22T02:05:01.234Z,21.63
2019-04-22T02:07:29.409Z,17.43
2019-04-22T02:09:56.030Z,21.03
2019-04-22T02:12:27.697Z,21.50
2019-04-22T02:14:57.630Z,18.97
2019-04-22T02:17:32.839Z,23.30
2019-04-22T02:19:59.097Z,20.23
2019-04-22T02:22:42.860Z,18.23
2019-04-22T02:25:17.138Z,18.70
2019-04-22T02:27:37.633Z,19.53
2019-04-22T02:29:52.275Z,22.97
2019-04-22T02:35:07.654Z,21.77
2019-04-22T02:37:27.767Z,24.00
2019-04-22T02:40:05.710Z,20.37
2019-04-22T02:42:24.188Z,19.50
2019-04-22T02:44:53.292Z,21.50
2019-04-22T02:50:01.744Z,21.03
2019-04-22T02:52:31.189Z,25.07
2019-04-22T02:55:03.067Z,16.97
2019-04-22T03:00:05.587Z,20.70
2019-04-22T03:02:35.721Z,21.53
2019-04-22T03:05:24.107Z,22.77
2019-04-22T03:09:57.852Z,21.20
2019-04-22T03:12:29.218Z,21.27
2019-04-22T03:14:59.933Z,23.70
2019-04-22T03:17:49.528Z,26.97
2019-04-22T03:22:27.940Z,23.10
2019-04-22T03:27:30.131Z,19.07
2019-04-22T03:42:52.091Z,21.47
2019-04-22T03:47:52.155Z,19.57
2019-04-22T03:52:44.465Z,22.93
2019-04-22T03:55:09.248Z,23.63
2019-04-22T04:05:09.924Z,22.60
2019-04-22T04:10:20.052Z,27.90
2019-04-22T04:12:58.198Z,23.07
2019-04-22T04:17:44.207Z,26.53
2019-04-22T04:22:56.744Z,24.47
2019-04-22T04:25:35.502Z,27.67
2019-04-22T04:30:18.847Z,23.17
2019-04-22T04:35:28.253Z,25.70
2019-04-22T04:47:47.719Z,26.97
2019-04-22T04:50:35.352Z,24.60
2019-04-22T04:55:26.660Z,28.90
2019-04-22T05:00:39.260Z,27.73
2019-04-22T05:02:52.470Z,24.67
2019-04-22T05:05:21.113Z,29.20
2019-04-22T05:07:55.366Z,29.77
2019-04-22T05:15:27.323Z,27.30
2019-04-22T05:22:51.574Z,24.83
2019-04-22T05:25:19.573Z,25.77
2019-04-22T05:27:47.682Z,24.90
2019-04-22T05:30:34.624Z,32.53
2019-04-22T05:32:58.716Z,29.03
2019-04-22T05:35:26.246Z,24.23
2019-04-22T05:37:58.006Z,28.60
2019-04-22T05:40:23.628Z,32.10
2019-04-22T05:42:55.956Z,27.00
2019-04-22T05:45:28.239Z,26.23
2019-04-22T05:47:57.612Z,24.83
2019-04-22T05:50:23.967Z,21.97
2019-04-22T05:52:56.680Z,26.77
2019-04-22T05:55:33.249Z,22.67
2019-04-22T05:57:59.680Z,26.20
2019-04-22T06:02:56.837Z,26.40
2019-04-22T06:05:33.184Z,27.73
2019-04-22T06:08:00.093Z,26.27
2019-04-22T06:10:42.313Z,26.47
2019-04-22T06:13:00.759Z,24.43
2019-04-22T06:15:32.821Z,22.43
2019-04-22T06:18:11.913Z,29.07
2019-04-22T06:20:37.379Z,25.90
2019-04-22T06:26:04.866Z,28.03
2019-04-22T06:28:17.197Z,26.93
2019-04-22T06:30:36.029Z,24.83
2019-04-22T06:33:15.295Z,26.73
2019-04-22T06:38:30.433Z,24.27
2019-04-22T06:40:46.994Z,21.52
2019-04-22T06:43:26.354Z,21.35
2019-04-22T06:45:51.736Z,24.20
2019-04-22T06:48:28.447Z,25.23
2019-04-22T06:50:52.817Z,21.73
2019-04-22T06:53:23.959Z,21.85
2019-04-22T06:55:55.795Z,19.95
2019-04-22T06:58:41.124Z,20.73
2019-04-22T07:01:19.370Z,22.03
2019-04-22T07:06:00.228Z,24.23
2019-04-22T07:08:59.626Z,21.97
2019-04-22T07:10:50.882Z,21.53
2019-04-22T07:13:27.428Z,20.37
2019-04-22T07:16:13.228Z,21.37
2019-04-22T07:18:33.821Z,25.13
2019-04-22T07:20:57.840Z,21.20
2019-04-22T07:23:30.280Z,19.83
2019-04-22T07:25:58.454Z,25.00
2019-04-22T07:28:24.462Z,22.83
2019-04-22T07:30:59.109Z,16.07
2019-04-22T07:33:39.300Z,16.17
2019-04-22T07:36:25.722Z,20.57
2019-04-22T07:38:26.319Z,20.63
2019-04-22T07:40:56.218Z,21.60
2019-04-22T07:43:52.844Z,19.63
2019-04-22T07:46:18.714Z,21.20
2019-04-22T07:48:43.423Z,21.50
2019-04-22T07:53:35.362Z,18.67
2019-04-22T07:56:06.734Z,18.40
2019-04-22T07:58:36.001Z,18.93
2019-04-22T08:01:08.796Z,19.73
2019-04-22T08:03:45.433Z,21.33
2019-04-22T08:06:11.717Z,18.20
2019-04-22T08:08:38.900Z,21.07
2019-04-22T08:13:38.284Z,13.37
2019-04-22T08:16:10.527Z,15.20
2019-04-22T08:18:54.097Z,17.07
2019-04-22T08:21:19.716Z,20.30
2019-04-22T08:26:05.404Z,21.13
2019-04-22T08:28:45.810Z,17.17
2019-04-22T08:33:44.425Z,17.23
2019-04-22T08:38:43.663Z,15.70
2019-04-22T08:41:22.991Z,14.97
2019-04-22T08:43:55.884Z,19.40
2019-04-22T08:46:23.379Z,12.20
2019-04-22T08:48:49.624Z,15.83
2019-04-22T08:51:23.429Z,13.07
2019-04-22T08:53:58.892Z,11.30
2019-04-22T09:01:22.448Z,13.03
2019-04-22T09:03:52.453Z,15.40
2019-04-22T09:06:29.976Z,11.80
2019-04-22T09:08:55.130Z,13.50
2019-04-22T09:11:31.331Z,10.45
2019-04-22T09:16:28.232Z,10.60
2019-04-22T09:18:53.867Z,7.45
2019-04-22T09:21:26.391Z,8.83
2019-04-22T09:23:57.160Z,6.85
2019-04-22T09:26:22.891Z,10.68
2019-04-22T09:28:53.864Z,9.38
2019-04-22T09:31:19.602Z,9.93
2019-04-22T09:33:50.398Z,13.93
2019-04-22T09:39:09.463Z,7.78
2019-04-22T09:41:27.674Z,8.95
2019-04-22T09:43:53.624Z,8.75
2019-04-22T09:46:22.726Z,6.33
2019-04-22T09:48:55.365Z,6.45
2019-04-22T09:51:19.029Z,6.12
2019-04-22T09:56:28.020Z,11.05
2019-04-22T09:58:52.322Z,5.35
2019-04-22T10:09:01.805Z,7.20
2019-04-22T10:11:26.846Z,6.30
2019-04-22T10:13:53.713Z,4.15
2019-04-22T10:16:27.681Z,4.50
2019-04-22T10:18:52.894Z,6.65
2019-04-22T10:21:24.090Z,5.37
2019-04-22T10:23:50.433Z,6.30
2019-04-22T10:26:22.299Z,5.85
2019-04-22T10:28:57.155Z,3.30
2019-04-22T10:31:26.193Z,7.10
2019-04-22T10:33:46.520Z,7.10
2019-04-22T10:35:57.365Z,10.43
2019-04-22T10:38:28.254Z,5.25
2019-04-22T10:40:56.540Z,6.65
2019-04-22T10:43:25.309Z,9.05
2019-04-22T10:45:54.622Z,3.98
2019-04-22T10:48:22.103Z,7.42
2019-04-22T10:50:50.699Z,4.22
2019-04-22T10:53:19.727Z,5.47
2019-04-22T10:55:49.451Z,4.58
2019-04-22T10:58:17.890Z,3.98
2019-04-22T11:00:52.338Z,4.15
2019-04-22T11:03:22.316Z,5.20
2019-04-22T11:05:50.586Z,4.10
2019-04-22T11:08:31.557Z,5.20
2019-04-22T11:11:07.111Z,4.25
2019-04-22T11:13:22.100Z,3.70
2019-04-22T11:15:53.071Z,6.53
2019-04-22T11:18:20.758Z,3.60
2019-04-22T11:20:49.376Z,5.37
2019-04-22T11:23:18.441Z,5.08
2019-04-22T11:25:47.834Z,9.10
2019-04-22T11:28:16.058Z,5.75
2019-04-22T11:30:44.717Z,3.77
2019-04-22T11:33:12.215Z,4.20
2019-04-22T11:35:50.045Z,4.10
2019-04-22T11:38:18.796Z,3.77
2019-04-22T11:40:51.670Z,7.25
2019-04-22T11:43:19.927Z,8.50
2019-04-22T11:45:49.122Z,5.47
2019-04-22T11:48:19.524Z,4.70
2019-04-22T11:50:48.119Z,8.45
2019-04-22T11:53:16.691Z,5.83
2019-04-22T11:55:46.687Z,3.72
2019-04-22T11:58:14.945Z,4.75
2019-04-22T12:00:53.459Z,4.28
2019-04-22T12:03:22.926Z,6.90
2019-04-22T12:05:58.162Z,4.60
2019-04-22T12:08:41.467Z,4.72
2019-04-22T12:11:22.746Z,4.40
2019-04-22T12:14:00.013Z,3.70
2019-04-22T12:16:23.309Z,5.58
2019-04-22T12:18:51.221Z,5.67
2019-04-22T12:21:19.531Z,6.83
2019-04-22T12:23:47.259Z,4.17
2019-04-22T12:26:22.662Z,5.12
2019-04-22T12:28:49.107Z,7.58
2019-04-22T12:31:17.657Z,4.87
2019-04-22T12:33:45.834Z,4.67
2019-04-22T12:36:14.741Z,9.18
2019-04-22T12:38:45.184Z,6.30
2019-04-22T12:41:23.607Z,5.20
2019-04-22T12:43:51.531Z,4.17
2019-04-22T12:46:20.497Z,6.87
2019-04-22T12:48:52.087Z,4.47
2019-04-22T12:51:20.941Z,4.45
2019-04-22T12:53:48.960Z,4.60
2019-04-22T12:56:17.433Z,6.78
2019-04-22T12:58:47.721Z,6.60
2019-04-22T13:01:19.089Z,5.65
2019-04-22T13:03:52.024Z,5.83
2019-04-22T13:06:23.654Z,3.77
2019-04-22T13:08:52.336Z,6.72
2019-04-22T13:11:25.085Z,7.87
2019-04-22T13:13:49.489Z,6.08
2019-04-22T13:16:20.676Z,6.92
2019-04-22T13:18:55.428Z,4.95
2019-04-22T13:21:18.667Z,4.47
2019-04-22T13:23:52.994Z,7.42
2019-04-22T13:26:27.148Z,5.35
2019-04-22T13:28:58.954Z,5.08
2019-04-22T13:31:33.273Z,4.70
2019-04-22T13:34:03.563Z,8.98
2019-04-22T13:36:36.643Z,9.08
2019-04-22T13:39:09.404Z,4.28
2019-04-22T13:41:44.015Z,4.72
2019-04-22T13:44:09.188Z,4.67
2019-04-22T13:46:59.186Z,7.70
2019-04-22T13:49:51.542Z,5.87
2019-04-22T13:52:29.305Z,5.15
2019-04-22T13:57:07.957Z,4.87
2019-04-22T13:59:27.125Z,6.78
2019-04-22T14:02:22.356Z,8.33
2019-04-22T14:04:52.665Z,6.53
2019-04-22T14:07:20.966Z,4.80
2019-04-22T14:09:48.714Z,4.45
2019-04-22T14:12:18.367Z,5.75
2019-04-22T14:14:47.397Z,5.85
2019-04-22T14:17:16.680Z,9.50
2019-04-22T14:19:44.769Z,8.55
2019-04-22T14:22:13.774Z,5.45
2019-04-22T14:24:42.672Z,7.05
2019-04-22T14:27:21.357Z,5.05
2019-04-22T14:29:43.770Z,10.95
2019-04-22T14:32:25.351Z,5.03
2019-04-22T14:34:53.224Z,6.42
2019-04-22T14:37:21.937Z,4.95
2019-04-22T14:39:49.957Z,4.37
2019-04-22T14:42:34.421Z,5.17
2019-04-22T14:47:53.901Z,4.65
2019-04-22T14:50:17.654Z,7.37
2019-04-22T14:52:50.794Z,7.25
2019-04-22T14:55:06.092Z,5.90
2019-04-22T14:57:27.751Z,7.00
2019-04-22T14:59:55.805Z,7.45
2019-04-22T15:02:25.540Z,4.70
2019-04-22T15:04:54.228Z,4.90
2019-04-22T15:07:30.711Z,4.92
2019-04-22T15:10:04.203Z,4.35
2019-04-22T15:12:39.169Z,8.45
2019-04-22T15:15:09.156Z,5.10
2019-04-22T15:17:45.111Z,4.45
2019-04-22T15:20:29.935Z,6.42
2019-04-22T15:22:58.874Z,4.53
2019-04-22T15:25:26.446Z,4.37
2019-04-22T15:27:55.228Z,4.30
2019-04-22T15:30:25.556Z,4.87
2019-04-22T15:32:53.667Z,4.25
2019-04-22T15:35:23.003Z,4.15
2019-04-22T15:37:55.230Z,5.72
2019-04-22T15:40:24.865Z,4.47
2019-04-22T15:42:55.063Z,7.47
2019-04-22T15:45:25.940Z,6.87
2019-04-22T15:47:59.919Z,6.80
2019-04-22T15:50:28.569Z,6.87
2019-04-22T15:52:58.866Z,4.53
2019-04-22T15:55:26.795Z,6.47
2019-04-22T15:57:55.168Z,10.43
2019-04-22T16:00:35.255Z,5.47
2019-04-22T16:02:51.997Z,5.90
2019-04-22T16:05:20.386Z,6.35
2019-04-22T16:07:53.045Z,16.48
2019-04-22T16:10:22.071Z,5.92
2019-04-22T16:13:03.511Z,6.87
2019-04-22T16:15:28.803Z,5.62
2019-04-22T16:18:00.874Z,5.15
2019-04-22T16:20:28.036Z,4.95
2019-04-22T16:23:27.378Z,6.08
2019-04-22T16:26:07.553Z,5.50
2019-04-22T16:28:35.461Z,3.87
2019-04-22T16:31:07.216Z,3.27
2019-04-22T16:33:39.981Z,10.20
2019-04-22T16:36:16.723Z,3.25
2019-04-22T16:38:49.180Z,6.67
2019-04-22T16:41:21.459Z,3.40
2019-04-22T16:43:54.273Z,4.00
2019-04-22T16:46:21.894Z,8.08
2019-04-22T16:48:53.855Z,6.00
2019-04-22T16:51:22.266Z,4.83
2019-04-22T16:53:53.922Z,6.42
2019-04-22T16:56:24.763Z,6.30
2019-04-22T16:58:54.838Z,9.88
2019-04-22T17:01:43.110Z,4.05
2019-04-22T17:04:22.905Z,6.30
2019-04-22T17:06:53.377Z,8.88
2019-04-22T17:09:25.872Z,3.72
2019-04-22T17:11:54.020Z,7.80
2019-04-22T17:14:27.237Z,5.30
2019-04-22T17:16:54.753Z,8.28
2019-04-22T17:19:23.695Z,5.37
2019-04-22T17:21:53.606Z,4.25
2019-04-22T17:24:28.030Z,4.25
2019-04-22T17:26:56.589Z,3.02
2019-04-22T17:29:28.265Z,6.25
2019-04-22T17:32:01.692Z,4.03
2019-04-22T17:34:25.514Z,5.97
2019-04-22T17:36:57.287Z,4.92
2019-04-22T17:39:35.983Z,5.58
2019-04-22T17:42:15.727Z,4.40
2019-04-22T17:44:48.071Z,6.35
2019-04-22T17:47:44.533Z,4.75
2019-04-22T17:50:31.430Z,6.22
2019-04-22T17:53:07.239Z,4.83
2019-04-22T17:55:24.236Z,6.00
2019-04-22T17:57:52.685Z,3.20
2019-04-22T18:00:29.552Z,5.22
2019-04-22T18:02:51.476Z,10.30
2019-04-22T18:05:09.920Z,2.65
2019-04-22T18:07:56.012Z,6.12
2019-04-22T18:10:32.562Z,4.12
2019-04-22T18:13:01.797Z,7.40
2019-04-22T18:15:27.021Z,5.28
2019-04-22T18:18:00.879Z,4.25
2019-04-22T18:20:27.566Z,4.15
2019-04-22T18:22:52.192Z,7.35
2019-04-22T18:25:29.581Z,3.77
2019-04-22T18:28:13.778Z,5.90
2019-04-22T18:30:33.495Z,4.50
2019-04-22T18:33:07.581Z,7.10
2019-04-22T18:35:35.209Z,5.10
2019-04-22T18:38:07.713Z,4.50
2019-04-22T18:40:36.196Z,8.73
2019-04-22T18:43:24.986Z,4.75
2019-04-22T18:45:47.065Z,7.87
2019-04-22T18:47:59.884Z,9.88
2019-04-22T18:50:50.377Z,7.92
2019-04-22T18:53:44.871Z,4.55
2019-04-22T18:56:14.014Z,7.42
2019-04-22T18:58:35.809Z,8.15
2019-04-22T19:00:51.311Z,5.55
2019-04-22T19:03:25.778Z,7.62
2019-04-22T19:06:24.787Z,5.12
2019-04-22T19:08:44.714Z,4.50
2019-04-22T19:11:17.638Z,4.03
2019-04-22T19:16:27.106Z,6.22
2019-04-22T19:18:50.215Z,9.35
2019-04-22T19:21:14.902Z,5.15
2019-04-22T19:23:52.133Z,6.50
2019-04-22T19:26:26.294Z,3.35
2019-04-22T19:28:46.481Z,4.78
2019-04-22T19:31:22.016Z,4.53
2019-04-22T19:33:50.089Z,5.50
2019-04-22T19:36:33.141Z,3.80
2019-04-22T19:38:38.285Z,6.25
2019-04-22T19:41:24.301Z,6.30
2019-04-22T19:46:18.336Z,5.72
2019-04-22T19:49:00.314Z,5.57
2019-04-22T19:51:27.995Z,6.00
2019-04-22T19:53:56.130Z,5.70
2019-04-22T19:56:17.585Z,12.70
2019-04-22T19:58:47.667Z,5.67
2019-04-22T20:01:45.526Z,4.07
2019-04-22T20:04:21.918Z,4.10
2019-04-22T20:06:56.553Z,4.43
2019-04-22T20:09:29.885Z,4.40
2019-04-22T20:11:59.697Z,7.57
2019-04-22T20:14:33.338Z,4.30
2019-04-22T20:16:54.410Z,8.50
2019-04-22T20:19:38.568Z,6.60
2019-04-22T20:22:00.017Z,5.70
2019-04-22T20:24:16.318Z,6.17
2019-04-22T20:27:09.106Z,7.13
2019-04-22T20:29:55.112Z,6.13
2019-04-22T20:32:10.812Z,5.90
2019-04-22T20:34:44.823Z,4.63
2019-04-22T20:37:15.149Z,8.17
2019-04-22T20:39:46.809Z,11.50
2019-04-22T20:42:38.699Z,8.87
2019-04-22T20:44:51.677Z,6.43
2019-04-22T20:47:17.725Z,4.33
2019-04-22T20:49:55.063Z,7.90
2019-04-22T20:52:26.634Z,6.73
2019-04-22T20:54:49.463Z,4.43
2019-04-22T20:57:17.231Z,5.17
2019-04-22T20:59:48.144Z,8.87
2019-04-22T21:02:14.993Z,6.00
2019-04-22T21:04:41.965Z,7.57
2019-04-22T21:07:19.651Z,6.23
2019-04-22T21:10:07.625Z,4.73
2019-04-22T21:12:31.306Z,6.00
2019-04-22T21:15:12.575Z,7.17
2019-04-22T21:17:38.731Z,5.53
2019-04-22T21:22:46.282Z,7.40
2019-04-22T21:25:08.875Z,5.10
2019-04-22T21:27:44.871Z,7.23
2019-04-22T21:30:12.349Z,7.83
2019-04-22T21:32:45.127Z,4.27
2019-04-22T21:35:21.576Z,5.33
2019-04-22T21:37:57.077Z,5.93
2019-04-22T21:40:19.997Z,9.37
2019-04-22T21:43:02.155Z,5.27
2019-04-22T21:45:20.314Z,4.07
2019-04-22T21:48:06.212Z,6.53
2019-04-22T21:53:01.248Z,8.43
2019-04-22T21:55:31.801Z,3.93
2019-04-22T21:58:21.387Z,7.70
2019-04-22T22:01:06.553Z,6.00
2019-04-22T22:03:23.680Z,4.30
2019-04-22T22:05:47.289Z,4.67
2019-04-22T22:08:30.119Z,4.03
2019-04-22T22:10:57.965Z,4.87
2019-04-22T22:13:27.064Z,4.77
2019-04-22T22:15:56.326Z,6.57
2019-04-22T22:18:21.405Z,5.73
2019-04-22T22:21:13.172Z,3.30
2019-04-22T22:25:55.783Z,3.83
2019-04-22T22:28:45.385Z,6.67
2019-04-22T22:31:02.013Z,5.60
2019-04-22T22:33:31.979Z,5.33
2019-04-22T22:35:54.691Z,5.60
2019-04-22T22:38:24.251Z,4.47
2019-04-22T22:40:40.463Z,5.67
2019-04-22T22:43:18.735Z,4.10
2019-04-22T22:45:44.985Z,3.50
2019-04-22T22:50:58.736Z,4.63
2019-04-22T22:53:34.020Z,7.20
2019-04-22T22:55:59.294Z,4.60
2019-04-22T22:58:29.312Z,7.53
2019-04-22T23:00:53.592Z,5.77
2019-04-22T23:03:46.011Z,7.40
2019-04-22T23:09:43.773Z,4.50
2019-04-22T23:12:31.243Z,4.30
2019-04-22T23:14:52.844Z,5.10
2019-04-22T23:17:11.720Z,6.60
2019-04-22T23:19:40.671Z,4.67
2019-04-22T23:22:20.498Z,3.67
2019-04-22T23:25:01.866Z,2.90
2019-04-22T23:27:34.482Z,4.77
2019-04-22T23:30:25.213Z,4.03
2019-04-22T23:33:07.526Z,4.00
2019-04-22T23:35:36.797Z,4.13
2019-04-22T23:38:07.839Z,5.00
2019-04-22T23:40:42.497Z,4.83
2019-04-22T23:43:24.278Z,6.23
2019-04-22T23:45:48.153Z,4.10
2019-04-22T23:48:11.180Z,4.37
2019-04-22T23:50:45.921Z,2.90
2019-04-22T23:53:36.435Z,4.10
2019-04-22T23:56:00.495Z,5.17
2019-04-22T23:58:52.647Z,5.63
